createdAt,value
2022-11-26T00:01:21.425Z,6.95
2022-11-26T00:03:49.497Z,6.85
2022-11-26T00:06:27.022Z,6.60
2022-11-26T00:08:54.109Z,6.60
2022-11-26T00:11:21.128Z,6.68
2022-11-26T00:13:48.135Z,6.10
2022-11-26T00:16:16.134Z,6.85
2022-11-26T00:18:43.726Z,7.18
2022-11-26T00:21:25.985Z,7.03
2022-11-26T00:23:54.596Z,7.15
2022-11-26T00:26:24.284Z,6.55
2022-11-26T00:29:02.011Z,7.65
2022-11-26T00:31:29.351Z,6.60
2022-11-26T00:33:56.626Z,7.70
2022-11-26T00:36:25.937Z,7.30
2022-11-26T00:39:06.999Z,8.00
2022-11-26T00:41:38.568Z,8.75
2022-11-26T00:44:20.354Z,7.22
2022-11-26T00:46:48.024Z,8.50
2022-11-26T00:49:15.884Z,7.88
2022-11-26T00:51:43.463Z,8.27
2022-11-26T00:54:13.586Z,8.90
2022-11-26T00:56:41.117Z,8.95
2022-11-26T00:59:13.589Z,8.57
2022-11-26T01:01:40.739Z,9.07
2022-11-26T01:04:07.895Z,10.25
2022-11-26T01:06:38.981Z,9.02
2022-11-26T01:09:07.175Z,9.18
2022-11-26T01:11:34.214Z,9.18
2022-11-26T01:14:01.377Z,8.60
2022-11-26T01:16:31.421Z,10.57
2022-11-26T01:19:00.023Z,10.05
2022-11-26T01:21:29.746Z,9.98
2022-11-26T01:23:56.925Z,9.55
2022-11-26T01:26:27.399Z,10.30
2022-11-26T01:28:55.488Z,9.20
2022-11-26T01:31:27.431Z,8.80
2022-11-26T01:33:54.646Z,9.00
2022-11-26T01:36:33.389Z,10.18
2022-11-26T01:39:01.807Z,9.70
2022-11-26T01:42:06.202Z,9.63
2022-11-26T01:44:35.893Z,9.57
2022-11-26T01:47:25.121Z,9.93
2022-11-26T01:50:29.267Z,9.00
2022-11-26T01:52:59.996Z,9.52
2022-11-26T01:55:39.901Z,11.18
2022-11-26T01:58:12.738Z,10.13
2022-11-26T02:00:40.214Z,9.90
2022-11-26T02:03:08.525Z,10.52
2022-11-26T02:05:42.433Z,9.68
2022-11-26T02:08:12.048Z,10.68
2022-11-26T02:10:39.126Z,11.18
2022-11-26T02:13:06.457Z,12.13
2022-11-26T02:16:03.865Z,14.43
2022-11-26T02:18:38.333Z,12.18
2022-11-26T02:21:20.889Z,12.77
2022-11-26T02:24:07.988Z,12.82
2022-11-26T02:26:58.501Z,10.63
2022-11-26T02:29:47.060Z,11.88
2022-11-26T02:32:21.137Z,10.05
2022-11-26T02:34:57.413Z,10.80
2022-11-26T02:37:50.177Z,11.23
2022-11-26T02:40:17.570Z,10.52
2022-11-26T02:42:44.551Z,10.32
2022-11-26T02:45:14.312Z,9.30
2022-11-26T02:47:44.731Z,9.82
2022-11-26T02:50:18.924Z,12.77
2022-11-26T02:52:49.170Z,9.60
2022-11-26T02:55:20.342Z,10.82
2022-11-26T02:57:50.713Z,10.25
2022-11-26T03:00:18.195Z,10.38
2022-11-26T03:02:49.888Z,11.60
2022-11-26T03:05:18.249Z,13.70
2022-11-26T03:07:49.102Z,10.25
2022-11-26T03:10:16.286Z,11.23
2022-11-26T03:12:43.306Z,10.20
2022-11-26T03:15:11.171Z,11.20
2022-11-26T03:17:38.231Z,11.27
2022-11-26T03:20:06.053Z,10.10
2022-11-26T03:22:33.155Z,10.23
2022-11-26T03:25:00.161Z,11.13
2022-11-26T03:27:27.210Z,13.32
2022-11-26T03:29:54.196Z,10.20
2022-11-26T03:32:21.207Z,11.57
2022-11-26T03:34:48.249Z,10.65
2022-11-26T03:37:15.580Z,11.52
2022-11-26T03:39:42.619Z,10.45
2022-11-26T03:42:09.952Z,10.25
2022-11-26T03:44:37.323Z,10.70
2022-11-26T03:47:04.552Z,9.98
2022-11-26T03:49:31.690Z,10.85
2022-11-26T03:51:58.840Z,11.23
2022-11-26T03:54:26.052Z,10.68
2022-11-26T03:56:53.027Z,9.95
2022-11-26T03:59:20.053Z,10.18
2022-11-26T04:01:47.224Z,11.75
2022-11-26T04:04:14.350Z,12.35
2022-11-26T04:06:41.428Z,11.23
2022-11-26T04:09:08.495Z,11.80
2022-11-26T04:11:35.696Z,11.75
2022-11-26T04:14:02.700Z,10.52
2022-11-26T04:16:29.782Z,11.73
2022-11-26T04:18:56.793Z,11.45
2022-11-26T04:21:23.799Z,10.60
2022-11-26T04:23:50.794Z,11.93
2022-11-26T04:26:17.902Z,11.60
2022-11-26T04:28:46.122Z,12.02
2022-11-26T04:31:13.163Z,11.90
2022-11-26T04:33:40.175Z,12.20
2022-11-26T04:36:07.448Z,13.23
2022-11-26T04:38:34.624Z,11.43
2022-11-26T04:41:01.639Z,12.35
2022-11-26T04:43:28.613Z,10.82
2022-11-26T04:45:55.831Z,14.60
2022-11-26T04:48:22.897Z,11.40
2022-11-26T04:50:50.226Z,11.40
2022-11-26T04:53:21.678Z,11.18
2022-11-26T04:55:49.924Z,10.65
2022-11-26T04:58:18.334Z,11.18
2022-11-26T05:00:50.218Z,10.13
2022-11-26T05:03:18.440Z,9.32
2022-11-26T05:05:46.588Z,10.45
2022-11-26T05:08:13.993Z,9.40
2022-11-26T05:10:41.077Z,10.10
2022-11-26T05:13:08.166Z,10.18
2022-11-26T05:15:35.126Z,11.00
2022-11-26T05:18:02.211Z,10.85
2022-11-26T05:20:29.226Z,10.68
2022-11-26T05:22:56.236Z,13.35
2022-11-26T05:25:23.602Z,9.45
2022-11-26T05:27:50.607Z,9.55
2022-11-26T05:30:17.832Z,10.93
2022-11-26T05:32:44.869Z,9.40
2022-11-26T05:35:11.873Z,9.90
2022-11-26T05:37:39.116Z,10.35
2022-11-26T05:40:07.090Z,11.00
2022-11-26T05:42:34.260Z,10.63
2022-11-26T05:45:01.647Z,9.98
2022-11-26T05:47:28.611Z,9.35
2022-11-26T05:49:55.709Z,9.75
2022-11-26T05:52:23.646Z,8.63
2022-11-26T05:54:50.641Z,10.77
2022-11-26T05:57:18.175Z,9.45
2022-11-26T05:59:46.045Z,9.25
2022-11-26T06:02:13.316Z,9.10
2022-11-26T06:04:40.807Z,9.93
2022-11-26T06:07:08.168Z,8.95
2022-11-26T06:09:36.070Z,9.02
2022-11-26T06:12:03.520Z,10.43
2022-11-26T06:14:30.502Z,10.93
2022-11-26T06:16:57.566Z,8.68
2022-11-26T06:19:24.779Z,8.40
2022-11-26T06:21:51.740Z,9.02
2022-11-26T06:24:19.031Z,9.57
2022-11-26T06:26:45.992Z,9.50
2022-11-26T06:29:13.175Z,9.73
2022-11-26T06:31:40.197Z,9.13
2022-11-26T06:34:07.321Z,11.00
2022-11-26T06:36:34.532Z,9.57
2022-11-26T06:39:01.616Z,10.18
2022-11-26T06:41:28.581Z,10.57
2022-11-26T06:43:55.573Z,10.88
2022-11-26T06:46:22.622Z,11.95
2022-11-26T06:48:49.713Z,10.57
2022-11-26T06:51:17.427Z,10.70
2022-11-26T06:53:44.440Z,10.27
2022-11-26T06:56:18.465Z,9.88
2022-11-26T06:58:48.336Z,10.02
2022-11-26T07:01:18.475Z,11.50
2022-11-26T07:03:46.614Z,10.80
2022-11-26T07:06:22.842Z,9.80
2022-11-26T07:08:51.519Z,10.43
2022-11-26T07:11:19.501Z,10.88
2022-11-26T07:13:46.596Z,11.80
2022-11-26T07:16:14.750Z,10.82
2022-11-26T07:18:41.832Z,11.38
2022-11-26T07:21:11.098Z,11.23
2022-11-26T07:23:39.005Z,11.90
2022-11-26T07:26:07.879Z,12.13
2022-11-26T07:28:35.792Z,11.98
2022-11-26T07:31:22.403Z,11.05
2022-11-26T07:33:50.674Z,10.82
2022-11-26T07:36:20.774Z,10.68
2022-11-26T07:38:48.565Z,11.13
2022-11-26T07:41:18.537Z,10.20
2022-11-26T07:43:46.134Z,10.98
2022-11-26T07:46:17.783Z,11.55
2022-11-26T07:48:45.015Z,11.80
2022-11-26T07:51:39.665Z,14.88
2022-11-26T07:54:08.223Z,11.85
2022-11-26T07:56:36.191Z,9.95
2022-11-26T07:59:03.499Z,11.23
2022-11-26T08:01:30.991Z,11.65
2022-11-26T08:04:00.152Z,12.07
2022-11-26T08:06:29.546Z,11.15
2022-11-26T08:08:58.924Z,12.25
2022-11-26T08:11:28.259Z,11.30
2022-11-26T08:14:00.720Z,11.85
2022-11-26T08:16:29.043Z,11.90
2022-11-26T08:18:58.914Z,10.55
2022-11-26T08:21:26.407Z,10.50
2022-11-26T08:23:53.735Z,12.32
2022-11-26T08:26:27.489Z,11.32
2022-11-26T08:28:59.320Z,12.82
2022-11-26T08:31:27.780Z,12.07
2022-11-26T08:33:59.045Z,11.68
2022-11-26T08:36:26.944Z,11.73
2022-11-26T08:38:54.405Z,12.35
2022-11-26T08:41:21.720Z,12.85
2022-11-26T08:44:06.138Z,11.43
2022-11-26T08:46:33.595Z,9.73
2022-11-26T08:49:00.992Z,13.18
2022-11-26T08:51:28.087Z,11.98
2022-11-26T08:53:55.265Z,10.38
2022-11-26T08:56:22.339Z,11.23
2022-11-26T08:58:51.278Z,10.00
2022-11-26T09:01:21.320Z,11.70
2022-11-26T09:03:50.059Z,9.95
2022-11-26T09:06:18.134Z,11.52
2022-11-26T09:09:05.139Z,12.40
2022-11-26T09:11:34.925Z,10.55
2022-11-26T09:14:02.851Z,10.05
2022-11-26T09:16:30.102Z,10.77
2022-11-26T09:19:00.111Z,9.93
2022-11-26T09:21:27.793Z,8.80
2022-11-26T09:23:55.313Z,7.90
2022-11-26T09:26:23.148Z,8.90
2022-11-26T09:28:50.696Z,9.63
2022-11-26T09:31:18.921Z,7.95
2022-11-26T09:33:46.151Z,9.05
2022-11-26T09:36:14.957Z,8.85
2022-11-26T09:38:42.381Z,7.63
2022-11-26T09:41:31.348Z,7.75
2022-11-26T09:44:14.567Z,8.77
2022-11-26T09:47:15.066Z,5.03
2022-11-26T09:50:06.650Z,4.03
2022-11-26T09:52:40.667Z,3.30
2022-11-26T09:55:21.896Z,4.00
2022-11-26T09:58:12.588Z,4.68
2022-11-26T10:00:51.696Z,4.03
2022-11-26T10:03:24.345Z,3.28
2022-11-26T10:08:26.781Z,2.88
2022-11-26T10:11:03.586Z,3.50
2022-11-26T10:13:44.941Z,3.80
2022-11-26T10:16:18.327Z,3.20
2022-11-26T10:19:12.996Z,3.88
2022-11-26T10:22:00.074Z,3.92
2022-11-26T10:24:39.384Z,6.10
2022-11-26T10:27:23.062Z,3.40
2022-11-26T10:29:56.383Z,4.20
2022-11-26T10:32:46.237Z,5.10
2022-11-26T10:35:19.158Z,4.35
2022-11-26T10:37:46.173Z,3.40
2022-11-26T10:40:29.529Z,4.85
2022-11-26T10:43:12.533Z,3.85
2022-11-26T10:45:48.906Z,4.63
2022-11-26T10:48:30.206Z,3.80
2022-11-26T10:51:15.231Z,3.47
2022-11-26T10:53:55.452Z,4.43
2022-11-26T10:56:35.122Z,3.20
2022-11-26T10:59:13.656Z,3.72
2022-11-26T11:01:41.856Z,3.15
2022-11-26T11:04:28.950Z,3.38
2022-11-26T11:06:56.820Z,4.18
2022-11-26T11:09:28.653Z,7.15
2022-11-26T11:12:10.941Z,4.75
2022-11-26T11:14:45.563Z,3.80
2022-11-26T11:17:32.261Z,3.10
2022-11-26T11:20:04.940Z,3.13
2022-11-26T11:25:00.159Z,2.92
2022-11-26T11:27:41.680Z,3.53
2022-11-26T11:30:25.340Z,4.22
2022-11-26T11:32:57.118Z,3.30
2022-11-26T11:35:26.973Z,2.87
2022-11-26T11:37:55.878Z,3.10
2022-11-26T11:40:27.438Z,2.90
2022-11-26T11:43:00.291Z,3.37
2022-11-26T11:48:26.439Z,4.45
2022-11-26T11:51:38.307Z,4.00
2022-11-26T11:54:21.671Z,2.72
2022-11-26T11:57:02.888Z,3.80
2022-11-26T11:59:58.356Z,2.65
2022-11-26T12:02:41.794Z,2.83
2022-11-26T12:05:36.085Z,2.40
2022-11-26T12:08:17.928Z,2.30
2022-11-26T12:11:00.108Z,1.95
2022-11-26T12:13:30.188Z,2.47
2022-11-26T12:16:05.972Z,1.90
2022-11-26T12:18:53.530Z,2.15
2022-11-26T12:21:49.267Z,2.20
2022-11-26T12:24:41.459Z,2.03
2022-11-26T12:27:18.476Z,2.65
2022-11-26T12:29:56.050Z,2.50
2022-11-26T12:32:35.971Z,2.25
2022-11-26T12:35:29.761Z,2.53
2022-11-26T12:38:01.830Z,2.25
2022-11-26T12:40:32.010Z,2.67
2022-11-26T12:43:13.992Z,2.95
2022-11-26T12:45:56.441Z,2.25
2022-11-26T12:48:46.746Z,2.05
2022-11-26T12:51:38.772Z,2.80
2022-11-26T12:54:26.713Z,3.25
2022-11-26T12:57:09.817Z,3.03
2022-11-26T12:59:52.122Z,3.75
2022-11-26T13:02:29.708Z,2.90
2022-11-26T13:04:57.300Z,3.83
2022-11-26T13:07:37.126Z,2.75
2022-11-26T13:10:07.026Z,2.80
2022-11-26T13:13:08.778Z,3.75
2022-11-26T13:15:54.273Z,2.28
2022-11-26T13:18:32.852Z,2.58
2022-11-26T13:21:21.753Z,4.13
2022-11-26T13:23:49.437Z,2.67
2022-11-26T13:26:41.044Z,2.20
2022-11-26T13:29:53.173Z,3.25
2022-11-26T13:32:38.779Z,2.95
2022-11-26T13:35:20.964Z,3.25
2022-11-26T13:38:06.689Z,3.00
2022-11-26T13:40:57.399Z,2.58
2022-11-26T13:43:44.830Z,2.70
2022-11-26T13:46:22.547Z,3.10
2022-11-26T13:49:01.658Z,2.45
2022-11-26T13:52:08.492Z,2.88
2022-11-26T13:54:41.047Z,2.83
2022-11-26T13:57:08.254Z,2.90
2022-11-26T13:59:36.692Z,2.53
2022-11-26T14:02:42.489Z,2.67
2022-11-26T14:05:13.369Z,2.10
2022-11-26T14:07:40.818Z,2.38
2022-11-26T14:10:36.936Z,2.97
2022-11-26T14:13:11.558Z,2.03
2022-11-26T14:15:41.225Z,3.58
2022-11-26T14:18:13.449Z,2.50
2022-11-26T14:21:09.684Z,3.25
2022-11-26T14:23:57.422Z,2.38
2022-11-26T14:26:29.142Z,2.15
2022-11-26T14:29:17.548Z,2.90
2022-11-26T14:31:54.095Z,3.20
2022-11-26T14:34:42.375Z,1.75
2022-11-26T14:37:14.502Z,2.95
2022-11-26T14:39:41.567Z,2.90
2022-11-26T14:42:16.319Z,2.95
2022-11-26T14:44:44.270Z,2.63
2022-11-26T14:47:17.630Z,3.10
2022-11-26T14:49:56.364Z,2.15
2022-11-26T14:52:26.538Z,2.55
2022-11-26T14:54:58.105Z,2.58
2022-11-26T14:57:50.347Z,2.63
2022-11-26T15:00:17.270Z,2.83
2022-11-26T15:02:48.461Z,4.93
2022-11-26T15:05:19.108Z,3.22
2022-11-26T15:07:47.618Z,3.33
2022-11-26T15:10:14.637Z,3.85
2022-11-26T15:12:43.907Z,2.95
2022-11-26T15:15:21.831Z,2.65
2022-11-26T15:17:56.124Z,3.50
2022-11-26T15:20:23.959Z,2.58
2022-11-26T15:22:53.621Z,2.58
2022-11-26T15:25:25.825Z,3.70
2022-11-26T15:28:16.130Z,2.83
2022-11-26T15:30:59.996Z,2.70
2022-11-26T15:33:29.510Z,2.78
2022-11-26T15:35:57.229Z,2.75
2022-11-26T15:38:27.122Z,2.55
2022-11-26T15:40:58.232Z,2.72
2022-11-26T15:43:34.317Z,2.90
2022-11-26T15:46:10.876Z,2.15
2022-11-26T15:48:52.030Z,3.17
2022-11-26T15:51:30.718Z,3.03
2022-11-26T15:54:02.435Z,2.97
2022-11-26T15:56:35.912Z,2.88
2022-11-26T15:59:13.719Z,3.50
2022-11-26T16:01:44.286Z,4.55
2022-11-26T16:04:33.184Z,4.03
2022-11-26T16:07:21.110Z,3.85
2022-11-26T16:09:50.464Z,3.95
2022-11-26T16:12:35.396Z,5.22
2022-11-26T16:15:26.328Z,4.55
2022-11-26T16:17:53.739Z,4.70
2022-11-26T16:20:26.740Z,4.30
2022-11-26T16:22:57.765Z,5.25
2022-11-26T16:25:27.740Z,5.20
2022-11-26T16:28:14.776Z,4.60
2022-11-26T16:30:43.910Z,4.30
2022-11-26T16:33:11.104Z,3.78
2022-11-26T16:35:46.737Z,4.45
2022-11-26T16:38:26.005Z,4.10
2022-11-26T16:40:53.874Z,5.50
2022-11-26T16:43:21.033Z,5.95
2022-11-26T16:45:50.438Z,5.97
2022-11-26T16:48:27.578Z,6.07
2022-11-26T16:50:55.730Z,5.82
2022-11-26T16:53:23.055Z,6.28
2022-11-26T16:55:52.084Z,6.57
2022-11-26T16:58:32.040Z,6.93
2022-11-26T17:00:59.422Z,6.53
2022-11-26T17:03:29.805Z,6.82
2022-11-26T17:05:59.984Z,5.75
2022-11-26T17:08:28.859Z,5.68
2022-11-26T17:10:56.397Z,4.63
2022-11-26T17:13:23.597Z,5.57
2022-11-26T17:15:51.653Z,5.13
2022-11-26T17:18:25.338Z,5.40
2022-11-26T17:20:53.609Z,6.03
2022-11-26T17:23:20.945Z,6.63
2022-11-26T17:25:52.229Z,9.02
2022-11-26T17:28:21.249Z,6.57
2022-11-26T17:30:48.392Z,7.40
2022-11-26T17:33:15.630Z,6.55
2022-11-26T17:35:42.788Z,7.18
2022-11-26T17:38:19.711Z,7.53
2022-11-26T17:40:47.793Z,7.57
2022-11-26T17:43:14.889Z,7.28
2022-11-26T17:45:42.021Z,6.72
2022-11-26T17:48:13.132Z,6.70
2022-11-26T17:50:41.311Z,7.30
2022-11-26T17:53:08.685Z,6.45
2022-11-26T17:55:35.832Z,6.68
2022-11-26T17:58:02.921Z,8.07
2022-11-26T18:00:30.142Z,8.50
2022-11-26T18:02:57.804Z,5.72
2022-11-26T18:05:25.126Z,5.55
2022-11-26T18:07:52.592Z,4.57
2022-11-26T18:10:22.183Z,5.43
2022-11-26T18:12:53.373Z,5.78
2022-11-26T18:15:23.421Z,5.32
2022-11-26T18:17:54.080Z,6.60
2022-11-26T18:20:23.859Z,5.13
2022-11-26T18:22:56.310Z,6.70
2022-11-26T18:25:23.371Z,6.20
2022-11-26T18:27:50.475Z,6.82
2022-11-26T18:30:18.121Z,7.93
2022-11-26T18:32:45.181Z,6.40
2022-11-26T18:35:13.095Z,8.52
2022-11-26T18:37:40.490Z,6.40
2022-11-26T18:40:10.337Z,5.97
2022-11-26T18:42:38.375Z,5.88
2022-11-26T18:45:07.610Z,5.95
2022-11-26T18:47:34.871Z,6.07
2022-11-26T18:50:01.864Z,5.95
2022-11-26T18:52:29.348Z,5.65
2022-11-26T18:54:56.399Z,7.30
2022-11-26T18:57:23.439Z,6.97
2022-11-26T18:59:51.390Z,6.40
2022-11-26T19:02:18.584Z,7.38
2022-11-26T19:04:45.682Z,6.13
2022-11-26T19:07:13.935Z,6.50
2022-11-26T19:09:41.523Z,6.03
2022-11-26T19:12:08.966Z,6.57
2022-11-26T19:14:36.537Z,6.05
2022-11-26T19:17:03.857Z,5.90
2022-11-26T19:19:32.120Z,6.07
2022-11-26T19:22:01.358Z,6.13
2022-11-26T19:24:29.866Z,6.45
2022-11-26T19:26:57.210Z,5.75
2022-11-26T19:29:24.349Z,5.47
2022-11-26T19:31:51.540Z,6.45
2022-11-26T19:34:18.649Z,5.75
2022-11-26T19:36:48.359Z,8.85
2022-11-26T19:39:16.552Z,6.32
2022-11-26T19:41:43.713Z,6.45
2022-11-26T19:44:11.824Z,7.35
2022-11-26T19:46:41.094Z,6.00
2022-11-26T19:49:11.836Z,5.30
2022-11-26T19:51:40.022Z,5.50
2022-11-26T19:54:07.543Z,5.65
2022-11-26T19:56:35.110Z,5.82
2022-11-26T19:59:02.536Z,5.95
2022-11-26T20:01:32.085Z,5.93
2022-11-26T20:04:01.407Z,5.75
2022-11-26T20:06:29.952Z,7.78
2022-11-26T20:08:58.926Z,7.10
2022-11-26T20:11:27.402Z,7.25
2022-11-26T20:13:55.332Z,6.47
2022-11-26T20:16:25.004Z,6.82
2022-11-26T20:18:52.145Z,5.97
2022-11-26T20:21:21.832Z,5.95
2022-11-26T20:23:50.384Z,5.68
2022-11-26T20:26:19.160Z,6.47
2022-11-26T20:28:46.385Z,8.52
2022-11-26T20:31:16.347Z,6.15
2022-11-26T20:33:46.693Z,5.68
2022-11-26T20:36:15.352Z,8.07
2022-11-26T20:38:42.361Z,9.30
2022-11-26T20:41:11.901Z,6.78
2022-11-26T20:43:39.305Z,7.57
2022-11-26T20:46:07.726Z,6.57
2022-11-26T20:48:36.120Z,7.20
2022-11-26T20:51:12.192Z,7.75
2022-11-26T20:53:40.605Z,7.00
2022-11-26T20:56:08.737Z,7.18
2022-11-26T20:58:36.141Z,7.15
2022-11-26T21:01:03.592Z,6.65
2022-11-26T21:03:31.119Z,6.78
2022-11-26T21:06:02.647Z,6.85
2022-11-26T21:08:29.966Z,7.32
2022-11-26T21:10:57.074Z,7.93
2022-11-26T21:13:24.089Z,8.05
2022-11-26T21:15:51.188Z,6.60
2022-11-26T21:18:18.251Z,7.20
2022-11-26T21:20:45.387Z,6.35
2022-11-26T21:23:13.331Z,6.60
2022-11-26T21:25:42.460Z,7.25
2022-11-26T21:28:10.603Z,9.13
2022-11-26T21:30:38.655Z,7.57
2022-11-26T21:33:09.282Z,8.55
2022-11-26T21:35:37.561Z,7.47
2022-11-26T21:38:05.797Z,6.68
2022-11-26T21:40:33.196Z,7.20
2022-11-26T21:43:00.170Z,7.10
2022-11-26T21:45:30.126Z,6.57
2022-11-26T21:47:57.127Z,6.63
2022-11-26T21:50:24.113Z,7.13
2022-11-26T21:52:51.094Z,6.55
2022-11-26T21:55:18.081Z,6.07
2022-11-26T21:57:45.600Z,8.02
2022-11-26T22:00:13.191Z,6.15
2022-11-26T22:02:40.199Z,5.72
2022-11-26T22:05:07.558Z,5.72
2022-11-26T22:07:34.755Z,4.30
2022-11-26T22:10:01.897Z,4.97
2022-11-26T22:12:29.256Z,6.45
2022-11-26T22:14:56.277Z,5.85
2022-11-26T22:17:23.307Z,6.30
2022-11-26T22:19:50.325Z,7.18
2022-11-26T22:22:17.324Z,6.43
2022-11-26T22:24:44.363Z,5.13
2022-11-26T22:27:11.368Z,4.88
2022-11-26T22:29:38.606Z,3.35
2022-11-26T22:32:05.948Z,4.70
2022-11-26T22:34:33.051Z,4.00
2022-11-26T22:37:00.094Z,3.00
2022-11-26T22:39:27.080Z,5.47
2022-11-26T22:41:54.105Z,4.72
2022-11-26T22:44:21.179Z,4.35
2022-11-26T22:46:48.195Z,4.55
2022-11-26T22:49:18.685Z,4.85
2022-11-26T22:51:47.281Z,4.65
2022-11-26T22:54:15.591Z,3.70
2022-11-26T22:56:42.637Z,5.60
2022-11-26T22:59:12.568Z,3.90
2022-11-26T23:01:39.923Z,3.92
2022-11-26T23:04:09.015Z,4.13
2022-11-26T23:06:36.780Z,3.88
2022-11-26T23:09:06.282Z,3.67
2022-11-26T23:11:37.515Z,4.50
2022-11-26T23:14:07.247Z,5.53
2022-11-26T23:16:36.082Z,4.68
2022-11-26T23:19:03.943Z,4.75
2022-11-26T23:21:38.231Z,3.88
2022-11-26T23:24:06.441Z,4.20
2022-11-26T23:26:35.637Z,5.47
2022-11-26T23:29:04.023Z,5.00
2022-11-26T23:31:34.376Z,5.55
2022-11-26T23:34:02.283Z,4.70
2022-11-26T23:36:30.132Z,4.93
2022-11-26T23:38:59.497Z,4.63
2022-11-26T23:41:26.765Z,5.35
2022-11-26T23:43:54.251Z,5.07
2022-11-26T23:46:24.099Z,4.90
2022-11-26T23:48:51.584Z,6.00
2022-11-26T23:51:21.955Z,4.93
2022-11-26T23:53:50.431Z,4.45
2022-11-26T23:56:28.899Z,5.63
2022-11-26T23:58:58.072Z,6.07
